Waverly, VA

2:41 PM EDT on July 05, 2015 (GMT -0400)
Wakefield Municipal | | Change Station
CLOSE
Current Station
Airport
Location: Wakefield,
Elevation: 112 ft
Nearby Weather Stations

Elev 112 ft 36.98 °N, 77.01 °W | Updated 47 minutes ago

Mostly Cloudy
Mostly Cloudy
85 °F
Feels Like 91 °F
N
6
Wind Variable Wind from ESE

Today
High -- | Low -- °F
--% Chance of Precip.
Yesterday
High -- | Low -- °F
Precip. -- in
5:53 AM 8:31 PM
Waning Gibbous, 83% visible
Pressure 30.11 in
Visibility 10.0 miles
Clouds Few 3400 ft
Scattered Clouds 4800 ft
Mostly Cloudy 5500 ft
Heat Index 91 °F
Dew Point 73 °F
Humidity 67%
Rainfall 0.03 in
Snow Depth Not available.
UV 6 out of 12
Pollen 2.80 out of 12
Air Quality Not available.
Flu Activity Not available.
METAR KAKQ 051754Z AUTO 11005KT 10SM FEW034 SCT048 BKN055 29/23 A3011 RMK AO2 RAB39E51 SLP195 P0000 60000 T02940228 10294 20244 58009 TSNO

More Conditions Fewer Conditions

Pressure 30.11 in
Visibility 10.0 miles
Clouds Few 3400 ft
Scattered Clouds 4800 ft
Mostly Cloudy 5500 ft
Heat Index 91 °F
Dew Point 73 °F
Humidity 67%
Rainfall 0.03 in
Snow Depth Not available.
UV 6 out of 12
Pollen 2.80 out of 12
Air Quality Not available.
Flu Activity Not available.
METAR KAKQ 051754Z AUTO 11005KT 10SM FEW034 SCT048 BKN055 29/23 A3011 RMK AO2 RAB39E51 SLP195 P0000 60000 T02940228 10294 20244 58009 TSNO

More Conditions Fewer Conditions

10-Day Weather Forecast

×

Almanac

Astronomy

Jul. 05, 2015 Rise Set
Actual Time
Civil Twilight
Nautical Twilight
Astronomical Twilight
Moon
Length of Visible Light
Length of Day
Tomorrow will be .
, % of the Moon is Illuminated

Today's Extremes

State Highs State Lows

Community

WunderPhotos

Upload Photos

1,835,346 photos uploaded!

WunderBlogs® & News

Nearby

Air Quality

  Air Quality AQ Index Pollutant
Not available.

Snow Depth

Station Depth Elevation

Earthquake Activity

City Distance Mag. Time & Date
Minimum magnitude displayed is 2.5.

Coastal Water Temperatures

Place Temperature

Stations

Nearby Weather Stations

Station Location Temp. Windchill Dew Point Humidity Wind Precip. Elev Updated Type